Brasstown, NC

4:43 AM EST on November 27, 2014 (GMT -0500)
Andrews | Change Station
CLOSE
Current Station
Airport
Location: Andrews,
Elevation: 1696 ft
Nearby Weather Stations

Elev 1696 ft 35.20 °N, 83.86 °W | Updated 8 minutes ago

Overcast
Overcast
37 °F
Feels Like 30 °F
N
8
Wind Variable Wind from WNW

Today
High -- | Low -- °F
--% Chance of Precip.
Yesterday
High -- | Low -- °F
Precip. -- in
7:21 AM 5:24 PM
Waxing Crescent, 28% visible
Pressure 30.06 in
Visibility 10.0 miles
Clouds Overcast 3300 ft
Windchill 30 °F
Dew Point 32 °F
Humidity 83%
Rainfall 0.08 in
Snow Depth Not available.
UV 0 out of 12
Pollen .10 out of 12
Air Quality Not available.
Flu Activity Not available.
METAR KRHP 270935Z AUTO 30007KT 10SM OVC033 03/00 A3006 RMK AO2 T00261001

More Conditions Fewer Conditions

Pressure 30.06 in
Visibility 10.0 miles
Clouds Overcast 3300 ft
Windchill 30 °F
Dew Point 32 °F
Humidity 83%
Rainfall 0.08 in
Snow Depth Not available.
UV 0 out of 12
Pollen .10 out of 12
Air Quality Not available.
Flu Activity Not available.
METAR KRHP 270935Z AUTO 30007KT 10SM OVC033 03/00 A3006 RMK AO2 T00261001

More Conditions Fewer Conditions

10-Day Weather Forecast

Almanac

Astronomy

Nov. 27, 2014 Rise Set
Actual Time
Civil Twilight
Nautical Twilight
Astronomical Twilight
Moon
Length of Visible Light
Length of Day
Tomorrow will be .
, % of the Moon is Illuminated

Today's Extremes

State Highs State Lows

Community

WunderPhotos

Upload Photos

1,773,965 photos uploaded!

WunderBlogs® & News

Nearby

Air Quality

  Air Quality AQ Index Pollutant
Not available.

Snow Depth

Station Depth Elevation

Earthquake Activity

City Distance Mag. Time & Date
Minimum magnitude displayed is 2.5.

Coastal Water Temperatures

Place Temperature

Nearby Weather Stations